Time;durP1;ratioP1;P1;durP2;ratioP2;P2;SDS_P1;SDS_P2;PMS_P1;PMS_P2;Temp;Humidity;BMP_temperature;BMP_pressure;BME280_temperature;BME280_humidity;BME280_pressure;Samples;Min_cycle;Max_cycle;Signal;HPM_P1;HPM_P2
2022/02/06 00:00:44;;;;;;;13.53;9.38;;;;;;;-1.11;78.57;100609.17;1724737;83;20891;-70
2022/02/06 00:03:11;;;;;;;15.63;9.05;;;;;;;-1.09;78.65;100594.16;1724740;83;21098;-72
2022/02/06 00:05:38;;;;;;;14.47;8.85;;;;;;;-1.09;78.59;100599.30;1724932;83;20959;-72
2022/02/06 00:08:10;;;;;;;13.15;8.78;;;;;;;-1.10;78.65;100602.73;1724933;83;20946;-71
2022/02/06 00:10:34;;;;;;;12.68;8.03;;;;;;;-1.06;78.72;100595.84;1724414;83;20988;-69
2022/02/06 00:13:01;;;;;;;13.45;7.95;;;;;;;-1.07;78.67;100593.70;1724991;83;20895;-70
2022/02/06 00:15:28;;;;;;;12.28;7.67;;;;;;;-1.11;78.64;100591.16;1725017;81;21445;-69
2022/02/06 00:17:55;;;;;;;13.45;9.38;;;;;;;-1.14;78.69;100588.64;1722870;82;20975;-70
2022/02/06 00:20:29;;;;;;;13.20;8.95;;;;;;;-1.12;78.91;100583.04;1717047;83;20891;-71
2022/02/06 00:22:56;;;;;;;13.05;9.38;;;;;;;-1.09;78.94;100579.13;1716840;83;20971;-70
2022/02/06 00:25:30;;;;;;;17.10;9.95;;;;;;;-1.06;78.98;100582.97;1717022;83;20848;-70
2022/02/06 00:30:43;;;;;;;11.35;7.58;;;;;;;-0.99;78.91;100585.03;1716551;83;21436;-70
2022/02/06 00:34:14;;;;;;;12.45;8.13;;;;;;;-0.98;78.77;100578.55;1715975;82;20951;-71
2022/02/06 00:35:51;;;;;;;14.38;8.75;;;;;;;-0.99;78.70;100582.02;1705160;83;20920;-71
2022/02/06 00:43:07;;;;;;;13.38;9.45;;;;;;;-0.93;78.58;100589.66;1716398;83;20900;-71
2022/02/06 00:45:35;;;;;;;14.95;9.75;;;;;;;-0.91;78.60;100579.32;1716503;83;20982;-70
2022/02/06 00:48:02;;;;;;;15.83;9.75;;;;;;;-0.92;78.46;100574.61;1716483;83;21378;-71
2022/02/06 00:50:30;;;;;;;13.55;9.15;;;;;;;-0.92;78.51;100568.63;1716569;83;20883;-70
2022/02/06 00:53:13;;;;;;;14.35;8.75;;;;;;;-0.88;78.63;100565.14;1716538;83;21585;-71
2022/02/06 00:55:36;;;;;;;14.30;9.10;;;;;;;-0.89;78.45;100575.88;1715796;83;21420;-72
2022/02/06 00:58:02;;;;;;;16.00;11.20;;;;;;;-0.91;78.54;100569.02;1733686;82;20892;-71
2022/02/06 01:00:29;;;;;;;14.93;10.48;;;;;;;-0.88;78.58;100573.70;1752753;82;20885;-71
2022/02/06 01:02:56;;;;;;;14.40;9.50;;;;;;;-0.85;78.60;100562.52;1752653;82;20992;-71
2022/02/06 01:05:23;;;;;;;16.73;10.08;;;;;;;-0.82;78.52;100566.35;1752790;82;21108;-71
2022/02/06 01:07:53;;;;;;;15.25;10.15;;;;;;;-0.80;78.52;100566.30;1752501;82;21533;-71
2022/02/06 01:10:20;;;;;;;16.82;9.20;;;;;;;-0.81;78.48;100564.17;1752621;82;20912;-71
2022/02/06 01:12:55;;;;;;;15.23;9.13;;;;;;;-0.80;78.50;100561.16;1752452;82;20984;-73
2022/02/06 01:15:21;;;;;;;16.70;10.43;;;;;;;-0.80;78.57;100555.59;1752043;81;20825;-72
2022/02/06 01:18:08;;;;;;;15.95;10.28;;;;;;;-0.81;78.57;100552.59;1752212;81;21797;-72
2022/02/06 01:20:40;;;;;;;16.57;9.75;;;;;;;-0.81;78.64;100554.32;1757875;81;21366;-71
2022/02/06 01:25:40;;;;;;;16.23;10.55;;;;;;;-0.79;78.81;100548.72;1757883;80;20971;-72
2022/02/06 01:28:09;;;;;;;16.85;11.35;;;;;;;-0.81;78.82;100554.32;1757280;81;21291;-72
2022/02/06 01:30:52;;;;;;;12.88;9.40;;;;;;;-0.81;78.85;100551.75;1757678;81;21885;-70
2022/02/06 01:33:20;;;;;;;13.60;10.40;;;;;;;-0.81;78.90;100547.44;1757350;80;21014;-71
2022/02/06 01:38:22;;;;;;;17.62;11.65;;;;;;;-0.78;78.90;100546.55;1757943;81;21508;-71
2022/02/06 01:40:59;;;;;;;16.10;10.32;;;;;;;-0.78;78.97;100542.23;1757254;81;20977;-71
2022/02/06 01:43:25;;;;;;;16.95;11.05;;;;;;;-0.80;79.01;100544.02;1757580;81;21116;-72
2022/02/06 01:46:21;;;;;;;15.98;11.53;;;;;;;-0.82;79.15;100539.32;1757719;81;21355;-72
2022/02/06 02:05:44;;;;;;;21.52;12.15;;;;;;;-0.80;79.58;100545.30;1758099;81;20904;-70
2022/02/06 02:10:58;;;;;;;20.32;11.53;;;;;;;-0.76;79.63;100549.95;1722920;81;21636;-70
2022/02/06 02:13:31;;;;;;;18.45;11.63;;;;;;;-0.72;79.64;100546.45;1756134;81;20944;-72
2022/02/06 02:21:08;;;;;;;19.90;11.70;;;;;;;-0.66;79.49;100551.53;1744508;80;20940;-69
2022/02/06 02:45:15;;;;;;;19.52;14.28;;;;;;;-0.30;79.47;100532.05;1744784;80;21093;-70
2022/02/06 02:47:41;;;;;;;25.10;14.98;;;;;;;-0.27;79.49;100535.01;1744456;81;21465;-72
2022/02/06 02:50:16;;;;;;;20.27;14.07;;;;;;;-0.25;79.41;100529.39;1744479;81;21079;-71
2022/02/06 02:58:01;;;;;;;28.00;16.23;;;;;;;-0.20;79.34;100534.05;1744418;82;21007;-70
2022/02/06 03:03:00;;;;;;;26.02;16.48;;;;;;;-0.19;79.26;100526.72;1744500;81;21142;-71
2022/02/06 03:05:20;;;;;;;29.12;15.80;;;;;;;-0.19;79.24;100520.28;1744156;81;20999;-70
2022/02/06 03:07:48;;;;;;;28.55;16.75;;;;;;;-0.18;79.21;100523.25;1744446;82;20893;-71
2022/02/06 03:10:16;;;;;;;28.40;18.37;;;;;;;-0.16;79.18;100530.52;1744254;82;20992;-71
2022/02/06 03:12:48;;;;;;;32.78;15.65;;;;;;;-0.15;79.17;100531.39;1744783;82;20929;-72
2022/02/06 03:15:23;;;;;;;32.28;18.60;;;;;;;-0.14;79.13;100531.34;1744323;82;21013;-70
2022/02/06 03:17:46;;;;;;;36.33;19.23;;;;;;;-0.15;79.11;100533.97;1744137;81;20980;-70
2022/02/06 03:20:17;;;;;;;35.65;21.27;;;;;;;-0.15;79.10;100529.66;1754526;81;20869;-71
2022/02/06 03:22:51;;;;;;;43.92;26.70;;;;;;;-0.16;79.12;100531.81;1757326;81;20964;-70
2022/02/06 03:25:20;;;;;;;37.65;21.25;;;;;;;-0.14;79.09;100526.64;1757810;80;21433;-72
2022/02/06 03:27:48;;;;;;;42.33;20.55;;;;;;;-0.16;79.11;100530.52;1758000;81;21449;-71
2022/02/06 03:30:15;;;;;;;36.95;21.33;;;;;;;-0.15;79.13;100535.26;1757701;80;20990;-69
2022/02/06 03:32:43;;;;;;;35.90;21.12;;;;;;;-0.15;79.19;100530.95;1757915;81;20877;-70
2022/02/06 03:35:10;;;;;;;35.50;22.27;;;;;;;-0.14;79.18;100532.63;1757822;81;20904;-71
2022/02/06 03:37:39;;;;;;;33.92;20.35;;;;;;;-0.10;79.25;100533.45;1757900;80;21401;-70
2022/02/06 03:40:07;;;;;;;37.90;23.27;;;;;;;-0.10;79.21;100536.86;1757924;81;21940;-70
2022/02/06 03:42:43;;;;;;;37.03;22.50;;;;;;;-0.09;79.15;100535.13;1757750;81;21426;-71
2022/02/06 03:45:07;;;;;;;43.80;25.05;;;;;;;-0.07;79.07;100535.55;1756999;81;21363;-71
2022/02/06 03:47:47;;;;;;;43.48;24.75;;;;;;;-0.08;78.93;100541.55;1757955;80;20916;-71
2022/02/06 03:50:04;;;;;;;46.30;27.13;;;;;;;-0.09;78.83;100545.02;1756359;80;20865;-71
2022/02/06 03:52:42;;;;;;;51.68;24.80;;;;;;;-0.12;78.76;100547.64;1757831;80;21919;-71
2022/02/06 03:55:02;;;;;;;45.48;25.17;;;;;;;-0.13;78.72;100550.27;1756861;80;20892;-70
2022/02/06 03:57:32;;;;;;;41.50;25.10;;;;;;;-0.17;78.75;100551.19;1758034;81;20896;-71
2022/02/06 03:59:59;;;;;;;50.78;24.63;;;;;;;-0.20;78.74;100549.52;1757795;81;20975;-71
2022/02/06 04:02:25;;;;;;;43.58;25.62;;;;;;;-0.22;78.76;100544.82;1758069;81;21386;-72
2022/02/06 04:04:53;;;;;;;51.58;26.65;;;;;;;-0.27;78.61;100548.77;1757800;81;21995;-72
2022/02/06 04:07:20;;;;;;;43.55;25.37;;;;;;;-0.30;78.73;100553.95;1757867;81;20877;-72
2022/02/06 04:09:52;;;;;;;46.30;26.12;;;;;;;-0.31;78.74;100553.97;1757979;81;21449;-72
2022/02/06 04:12:21;;;;;;;49.75;27.32;;;;;;;-0.35;78.76;100557.49;1758476;81;20924;-73
2022/02/06 04:14:56;;;;;;;51.28;28.15;;;;;;;-0.37;78.81;100560.53;1758763;81;20916;-72
2022/02/06 04:17:36;;;;;;;60.33;30.37;;;;;;;-0.42;78.84;100560.16;1758630;81;21709;-72
2022/02/06 04:20:00;;;;;;;53.92;29.37;;;;;;;-0.45;78.99;100561.92;1757661;81;20888;-73
2022/02/06 04:22:27;;;;;;;63.50;32.10;;;;;;;-0.47;79.20;100567.13;1758194;80;21432;-72
2022/02/06 04:24:54;;;;;;;55.70;29.63;;;;;;;-0.48;79.25;100565.84;1758241;81;20885;-72
2022/02/06 04:27:21;;;;;;;56.60;30.00;;;;;;;-0.52;79.26;100562.90;1758279;80;20885;-73
2022/02/06 04:29:49;;;;;;;49.30;27.62;;;;;;;-0.54;79.27;100565.93;1757910;80;21177;-73
2022/02/06 04:32:16;;;;;;;57.70;30.97;;;;;;;-0.57;79.33;100566.84;1757792;81;21509;-73
2022/02/06 04:34:43;;;;;;;51.90;29.42;;;;;;;-0.58;79.37;100565.12;1758218;81;20880;-72
2022/02/06 04:37:27;;;;;;;49.45;28.83;;;;;;;-0.62;79.36;100564.77;1757865;81;20991;-74
2022/02/06 05:14:36;;;;;;;39.48;20.27;;;;;;;-0.96;80.01;100606.85;1660937;85;20963;-71
2022/02/06 05:27:50;;;;;;;30.70;16.60;;;;;;;-1.03;80.18;100606.08;1727459;82;21410;-74
2022/02/06 05:30:03;;;;;;;31.00;16.15;;;;;;;-1.02;80.12;100614.64;1747830;80;20932;-72
2022/02/06 05:32:40;;;;;;;29.60;17.30;;;;;;;-0.99;80.07;100618.48;1750225;81;20963;-73
2022/02/06 05:35:07;;;;;;;34.95;17.57;;;;;;;-1.02;80.03;100612.95;1750104;81;21168;-73
2022/02/06 05:37:34;;;;;;;32.10;18.32;;;;;;;-1.04;80.06;100610.83;1750330;82;21372;-73
2022/02/06 05:40:05;;;;;;;34.90;18.82;;;;;;;-1.03;80.24;100613.80;1750151;82;20979;-73
2022/02/06 05:42:34;;;;;;;41.77;21.40;;;;;;;-1.02;80.24;100614.23;1750212;80;20857;-72
2022/02/06 05:45:01;;;;;;;50.28;27.27;;;;;;;-1.02;80.24;100613.36;1750114;82;20904;-73
2022/02/06 05:47:28;;;;;;;55.73;26.82;;;;;;;-0.98;80.36;100620.17;1750193;82;21196;-72
2022/02/06 05:49:55;;;;;;;61.15;29.12;;;;;;;-0.97;80.54;100625.31;1750038;80;20960;-72
2022/02/06 05:52:23;;;;;;;62.45;28.83;;;;;;;-0.93;80.53;100612.83;1750365;82;20861;-72
2022/02/06 05:54:49;;;;;;;56.00;27.37;;;;;;;-0.90;80.46;100617.92;1750023;82;20916;-73
2022/02/06 05:57:16;;;;;;;59.70;29.15;;;;;;;-0.88;80.34;100621.33;1750382;80;21509;-72
2022/02/06 05:59:45;;;;;;;57.38;30.32;;;;;;;-0.85;80.42;100613.55;1750370;82;22076;-73
2022/02/06 06:02:12;;;;;;;52.27;28.12;;;;;;;-0.80;80.40;100616.51;1750145;82;20854;-72
2022/02/06 06:04:40;;;;;;;57.08;29.05;;;;;;;-0.72;80.59;100623.70;1750146;82;20865;-72
2022/02/06 06:07:07;;;;;;;49.20;26.85;;;;;;;-0.58;80.66;100620.48;1749994;82;21533;-71
2022/02/06 06:09:35;;;;;;;51.28;27.40;;;;;;;-0.45;80.58;100625.88;1750106;82;21468;-71
2022/02/06 06:12:02;;;;;;;53.17;29.87;;;;;;;-0.21;80.68;100623.81;1750049;80;21145;-71
2022/02/06 06:14:30;;;;;;;54.27;32.05;;;;;;;0.20;81.06;100628.72;1750385;82;20916;-73
2022/02/06 06:16:58;;;;;;;56.75;30.10;;;;;;;0.79;80.75;100633.67;1750164;82;20936;-72
2022/02/06 06:19:26;;;;;;;60.85;29.85;;;;;;;1.48;79.89;100637.40;1750684;80;21426;-72
2022/02/06 06:21:57;;;;;;;53.08;28.85;;;;;;;2.15;79.27;100624.60;1757840;81;21015;-72
2022/02/06 06:24:25;;;;;;;48.58;29.55;;;;;;;2.82;77.53;100635.36;1757821;81;21309;-71
2022/02/06 06:26:51;;;;;;;51.70;28.75;;;;;;;3.44;76.48;100631.39;1757708;80;21358;-72
2022/02/06 06:29:18;;;;;;;47.88;25.27;;;;;;;4.03;74.46;100634.77;1757968;81;21394;-71
2022/02/06 06:31:47;;;;;;;45.43;25.72;;;;;;;4.58;72.14;100641.98;1757778;81;20983;-71
2022/02/06 06:34:15;;;;;;;46.58;25.77;;;;;;;4.94;69.79;100642.88;1757799;80;21644;-73
2022/02/06 06:36:44;;;;;;;54.60;30.88;;;;;;;5.00;68.07;100640.03;1758292;81;21071;-72
2022/02/06 06:39:10;;;;;;;59.20;32.33;;;;;;;4.85;66.59;100648.41;1758210;80;20911;-72
2022/02/06 06:41:37;;;;;;;63.80;35.33;;;;;;;4.62;65.80;100645.31;1758151;81;20920;-72
2022/02/06 06:44:05;;;;;;;59.18;32.70;;;;;;;4.36;65.96;100641.88;1757882;81;20923;-72
2022/02/06 06:46:32;;;;;;;55.28;30.72;;;;;;;4.10;65.56;100639.69;1758823;81;20884;-72
2022/02/06 06:48:59;;;;;;;52.88;31.33;;;;;;;3.82;65.91;100638.88;1758008;81;21085;-73
2022/02/06 06:51:27;;;;;;;49.48;28.47;;;;;;;3.64;66.48;100641.60;1758090;80;20995;-73
2022/02/06 06:53:54;;;;;;;47.83;25.48;;;;;;;3.46;66.66;100647.75;1757790;80;20969;-73
2022/02/06 06:56:30;;;;;;;41.18;22.40;;;;;;;3.33;67.04;100650.30;1757973;80;20928;-71
2022/02/06 06:58:53;;;;;;;38.02;20.57;;;;;;;3.25;67.30;100649.25;1757320;81;21354;-73
2022/02/06 07:04:05;;;;;;;37.78;20.05;;;;;;;3.17;67.65;100646.02;1757776;81;20960;-74
2022/02/06 07:06:32;;;;;;;34.33;19.25;;;;;;;3.11;67.92;100652.24;1757738;81;20884;-73
2022/02/06 07:09:01;;;;;;;34.05;17.82;;;;;;;3.11;68.06;100657.42;1757747;80;20964;-73
2022/02/06 07:11:30;;;;;;;32.73;16.95;;;;;;;3.16;68.30;100649.52;1756968;81;21370;-73
2022/02/06 07:13:59;;;;;;;31.57;17.35;;;;;;;3.26;68.39;100644.91;1757800;80;21510;-74
2022/02/06 07:16:26;;;;;;;31.35;16.32;;;;;;;3.35;68.22;100643.33;1757759;81;20924;-74
2022/02/06 07:18:53;;;;;;;26.90;13.75;;;;;;;3.45;67.78;100646.52;1757813;81;20920;-73
2022/02/06 07:21:20;;;;;;;19.48;11.90;;;;;;;3.49;67.22;100645.50;1747559;80;20885;-72
2022/02/06 07:23:48;;;;;;;25.12;16.42;;;;;;;3.51;67.06;100656.67;1744529;82;21351;-75
2022/02/06 07:26:19;;;;;;;23.75;14.25;;;;;;;3.51;67.38;100656.25;1744493;81;21135;-72
2022/02/06 07:28:49;;;;;;;15.38;9.80;;;;;;;3.57;67.30;100652.61;1744603;81;20889;-72
2022/02/06 07:31:16;;;;;;;18.02;9.68;;;;;;;3.66;67.20;100655.38;1743326;81;20945;-71
2022/02/06 07:33:43;;;;;;;13.45;9.25;;;;;;;3.76;67.09;100655.92;1744590;82;20901;-73
2022/02/06 07:36:10;;;;;;;12.20;8.10;;;;;;;3.89;66.87;100653.34;1744454;82;21274;-74
2022/02/06 07:38:37;;;;;;;12.18;6.97;;;;;;;4.00;66.44;100655.60;1744620;81;21117;-73
2022/02/06 07:41:06;;;;;;;9.98;7.17;;;;;;;4.06;66.08;100658.84;1744524;80;20987;-74
2022/02/06 07:43:35;;;;;;;10.45;6.80;;;;;;;4.15;65.83;100657.24;1744637;81;20842;-75
2022/02/06 07:46:07;;;;;;;10.05;7.42;;;;;;;4.18;65.33;100661.52;1759029;81;20944;-75
2022/02/06 07:48:36;;;;;;;9.25;6.72;;;;;;;4.13;65.06;100667.28;1745093;80;21429;-73
2022/02/06 07:51:05;;;;;;;10.03;6.65;;;;;;;4.08;65.24;100673.08;1734508;82;20873;-72
2022/02/06 07:53:34;;;;;;;11.78;7.03;;;;;;;4.10;65.38;100679.06;1684973;84;21363;-73
2022/02/06 07:56:03;;;;;;;8.33;6.62;;;;;;;4.16;65.46;100681.47;1683184;85;20921;-72
2022/02/06 07:58:30;;;;;;;11.50;7.35;;;;;;;4.26;65.22;100679.41;1682905;83;20961;-72
2022/02/06 08:00:57;;;;;;;10.90;7.08;;;;;;;4.36;65.19;100685.55;1683412;84;21013;-71
2022/02/06 08:03:28;;;;;;;12.85;6.30;;;;;;;4.47;65.01;100681.73;1683733;85;22158;-72
2022/02/06 08:05:52;;;;;;;9.30;6.90;;;;;;;4.55;64.54;100684.92;1700600;83;21056;-72
2022/02/06 08:08:19;;;;;;;9.63;7.20;;;;;;;4.53;64.14;100685.42;1696458;84;20960;-71
2022/02/06 08:10:46;;;;;;;10.98;6.53;;;;;;;4.52;64.20;100679.85;1696276;84;21003;-72
2022/02/06 08:13:25;;;;;;;12.70;7.60;;;;;;;4.56;63.99;100686.64;1696152;84;21455;-71
2022/02/06 08:15:43;;;;;;;9.25;6.50;;;;;;;4.55;64.01;100679.27;1694349;84;21142;-71
2022/02/06 08:18:10;;;;;;;10.38;6.67;;;;;;;4.55;64.08;100677.98;1696177;84;20932;-73
2022/02/06 08:20:38;;;;;;;11.57;6.85;;;;;;;4.61;64.05;100686.48;1697857;83;20967;-73
2022/02/06 08:23:06;;;;;;;12.45;7.10;;;;;;;4.69;63.99;100688.34;1711361;82;20943;-74
2022/02/06 08:25:33;;;;;;;13.13;9.23;;;;;;;4.67;63.40;100690.14;1701489;84;20885;-73
2022/02/06 08:28:02;;;;;;;14.28;8.58;;;;;;;4.65;63.58;100690.22;1711422;82;21136;-73
2022/02/06 08:30:30;;;;;;;8.95;7.25;;;;;;;4.66;63.77;100691.06;1701589;84;20955;-73
2022/02/06 08:32:59;;;;;;;17.17;9.73;;;;;;;4.70;63.72;100691.36;1711394;82;20951;-75
2022/02/06 08:35:26;;;;;;;19.62;10.70;;;;;;;4.74;63.71;100694.25;1701614;83;21015;-71
2022/02/06 08:37:53;;;;;;;20.82;12.88;;;;;;;4.77;63.56;100697.57;1711358;82;20931;-73
2022/02/06 08:40:20;;;;;;;19.00;11.08;;;;;;;4.80;63.35;100699.20;1702167;84;21493;-75
2022/02/06 08:42:47;;;;;;;23.98;12.78;;;;;;;4.82;63.49;100706.95;1711339;82;20987;-74
2022/02/06 08:45:15;;;;;;;28.05;15.53;;;;;;;4.82;63.20;100705.20;1701981;83;20912;-73
2022/02/06 08:47:44;;;;;;;23.75;14.83;;;;;;;4.85;63.16;100702.98;1711315;82;20912;-73
2022/02/06 08:50:11;;;;;;;29.23;16.48;;;;;;;4.83;63.08;100704.31;1702008;83;20951;-73
2022/02/06 08:52:37;;;;;;;33.10;17.70;;;;;;;4.81;63.01;100706.12;1711311;82;21773;-72
2022/02/06 08:55:09;;;;;;;28.57;17.17;;;;;;;4.81;62.98;100709.17;1701605;84;20948;-72
2022/02/06 08:57:43;;;;;;;38.13;20.88;;;;;;;4.83;63.11;100710.81;1711403;82;20987;-72
2022/02/06 09:00:09;;;;;;;35.10;20.50;;;;;;;4.90;63.31;100710.15;1701226;83;21418;-74
2022/02/06 09:02:37;;;;;;;24.98;13.80;;;;;;;4.96;62.90;100709.48;1711397;82;20999;-71
2022/02/06 09:05:04;;;;;;;29.00;16.20;;;;;;;4.96;62.85;100709.94;1701867;84;21152;-71
2022/02/06 09:07:32;;;;;;;30.12;16.10;;;;;;;4.96;62.78;100707.34;1711346;82;21382;-71
2022/02/06 09:10:01;;;;;;;24.52;12.93;;;;;;;4.97;62.86;100709.02;1702043;84;20963;-70
2022/02/06 09:12:30;;;;;;;20.12;11.70;;;;;;;4.98;62.64;100714.63;1711302;82;21474;-72
2022/02/06 09:14:57;;;;;;;23.65;12.13;;;;;;;4.96;62.37;100711.23;1701751;84;21006;-71
2022/02/06 09:17:24;;;;;;;17.25;9.73;;;;;;;4.95;62.86;100706.92;1711606;82;21506;-71
2022/02/06 09:19:51;;;;;;;13.68;8.53;;;;;;;4.97;62.25;100708.56;1701578;84;20941;-73
2022/02/06 09:22:18;;;;;;;12.40;7.92;;;;;;;4.93;62.27;100711.33;1701927;83;20980;-71
2022/02/06 09:24:45;;;;;;;12.07;8.18;;;;;;;4.86;62.29;100713.30;1696120;84;20925;-72
2022/02/06 09:27:12;;;;;;;14.10;8.70;;;;;;;4.84;62.56;100715.55;1696092;83;20920;-71
2022/02/06 09:29:40;;;;;;;16.57;8.13;;;;;;;4.86;62.73;100715.05;1696172;83;21177;-70
2022/02/06 09:37:09;;;;;;;12.37;6.85;;;;;;;4.75;62.70;100717.55;1696156;83;21011;-73
2022/02/06 09:39:42;;;;;;;14.00;7.22;;;;;;;4.68;62.95;100719.13;1696311;84;20976;-74
2022/02/06 09:42:09;;;;;;;14.83;9.28;;;;;;;4.63;63.30;100714.09;1696077;84;21157;-72
2022/02/06 09:44:37;;;;;;;12.68;9.18;;;;;;;4.63;63.20;100718.45;1696095;84;20995;-75
2022/02/06 09:47:04;;;;;;;15.78;9.83;;;;;;;4.56;63.40;100713.91;1696039;83;20932;-73
2022/02/06 09:49:32;;;;;;;18.60;9.85;;;;;;;4.46;63.34;100717.24;1696126;84;21125;-74
2022/02/06 09:51:59;;;;;;;16.87;8.85;;;;;;;4.42;63.72;100716.09;1696056;84;20964;-73
2022/02/06 09:54:27;;;;;;;17.10;9.83;;;;;;;4.43;63.84;100716.06;1696322;83;21117;-73
2022/02/06 09:56:55;;;;;;;13.48;8.50;;;;;;;4.49;64.02;100714.56;1696298;84;21494;-73
2022/02/06 09:59:23;;;;;;;20.40;9.15;;;;;;;4.56;63.83;100714.75;1696373;84;21418;-71
2022/02/06 10:01:53;;;;;;;19.32;10.68;;;;;;;4.66;63.83;100710.54;1695970;84;20965;-71
2022/02/06 10:04:24;;;;;;;21.85;12.55;;;;;;;4.75;63.96;100718.85;1696366;84;21441;-73
2022/02/06 10:07:12;;;;;;;23.52;11.95;;;;;;;4.90;63.59;100714.05;1696057;84;21130;-74
2022/02/06 10:09:46;;;;;;;18.60;10.53;;;;;;;5.03;63.28;100714.47;1644992;84;21031;-73
2022/02/06 10:12:14;;;;;;;21.62;12.78;;;;;;;5.19;62.99;100711.25;1696241;84;20920;-73
2022/02/06 10:14:41;;;;;;;22.77;14.03;;;;;;;5.32;62.53;100703.86;1696267;84;20956;-74
2022/02/06 10:17:08;;;;;;;26.62;14.80;;;;;;;5.39;62.32;100709.22;1696072;84;21473;-76
2022/02/06 10:19:37;;;;;;;25.43;14.38;;;;;;;5.55;62.15;100706.05;1696525;83;21307;-72
2022/02/06 10:22:25;;;;;;;24.85;14.35;;;;;;;5.78;62.06;100702.13;1705422;83;21165;-71
2022/02/06 10:25:08;;;;;;;16.00;8.58;;;;;;;6.00;60.90;100696.95;1717459;83;20931;-73
2022/02/06 10:28:21;;;;;;;12.93;7.70;;;;;;;6.17;59.97;100704.53;1716802;83;21037;-74
2022/02/06 10:30:45;;;;;;;14.50;8.80;;;;;;;6.29;59.53;100710.99;1714931;83;20922;-75
2022/02/06 10:33:18;;;;;;;15.78;9.35;;;;;;;6.35;59.00;100709.45;1721812;82;21145;-74
2022/02/06 10:35:54;;;;;;;12.58;8.18;;;;;;;6.35;59.01;100704.23;1693008;83;20950;-75
2022/02/06 10:38:26;;;;;;;13.68;7.75;;;;;;;6.37;59.15;100714.14;1692798;83;20947;-76
2022/02/06 10:41:18;;;;;;;16.42;10.88;;;;;;;6.36;58.85;100711.16;1693038;83;21442;-73
2022/02/06 10:44:06;;;;;;;22.82;14.00;;;;;;;6.31;59.48;100701.36;1692837;83;21527;-74
2022/02/06 10:46:47;;;;;;;25.90;14.87;;;;;;;6.40;59.29;100711.40;1721735;82;21152;-73
2022/02/06 10:49:19;;;;;;;30.23;17.55;;;;;;;6.54;59.24;100701.27;1692908;83;20943;-74
2022/02/06 10:51:52;;;;;;;23.73;14.87;;;;;;;6.66;58.43;100705.11;1692846;83;21507;-82
2022/02/06 10:54:34;;;;;;;25.00;13.90;;;;;;;6.83;58.15;100697.42;1721732;82;20915;-83
2022/02/06 10:57:15;;;;;;;27.77;16.37;;;;;;;7.07;57.87;100698.58;1721957;82;20943;-81
2022/02/06 10:59:49;;;;;;;27.77;18.17;;;;;;;7.19;56.87;100692.80;1692912;84;21076;-72
2022/02/06 11:02:39;;;;;;;41.95;23.42;;;;;;;7.21;56.86;100696.66;1692948;83;21091;-74
2022/02/06 11:05:21;;;;;;;31.77;20.35;;;;;;;7.24;56.93;100692.59;1722342;82;20947;-75
2022/02/06 11:07:53;;;;;;;28.55;18.23;;;;;;;7.32;56.45;100700.92;1721656;82;20998;-78
2022/02/06 11:10:23;;;;;;;25.85;17.17;;;;;;;7.44;56.40;100704.27;1693031;83;21377;-74
2022/02/06 11:12:56;;;;;;;29.55;19.42;;;;;;;7.55;56.06;100702.48;1693088;83;21188;-73
2022/02/06 11:15:28;;;;;;;34.43;20.10;;;;;;;7.60;55.91;100697.04;1692779;83;20943;-73
2022/02/06 11:18:20;;;;;;;39.10;22.17;;;;;;;7.56;55.74;100701.58;1692870;83;20900;-73
2022/02/06 11:21:05;;;;;;;54.60;29.27;;;;;;;7.53;55.95;100698.25;1689438;83;21000;-78
2022/02/06 11:23:44;;;;;;;62.10;36.88;;;;;;;7.56;56.10;100698.09;1703691;83;20874;-73
2022/02/06 11:26:18;;;;;;;52.38;31.12;;;;;;;7.58;55.92;100700.17;1689373;83;21672;-70
2022/02/06 11:28:46;;;;;;;55.40;26.50;;;;;;;7.61;55.69;100697.45;1707510;84;21454;-68
2022/02/06 11:31:18;;;;;;;48.95;27.15;;;;;;;7.56;55.51;100705.92;1710434;84;21011;-68
2022/02/06 11:36:18;;;;;;;61.00;29.25;;;;;;;7.52;55.79;100700.48;1797730;79;22477;-71
2022/02/06 11:45:03;;;;;;;63.45;29.20;;;;;;;7.12;55.58;100713.55;1726815;80;20906;-69
2022/02/06 11:47:36;;;;;;;62.70;33.33;;;;;;;6.87;56.05;100706.40;1758377;81;20967;-70
2022/02/06 11:50:07;;;;;;;69.10;31.65;;;;;;;6.62;56.56;100700.93;1755910;81;21553;-70
2022/02/06 11:52:57;;;;;;;68.90;33.67;;;;;;;6.36;57.13;100708.09;1716075;81;20889;-67
2022/02/06 11:55:48;;;;;;;61.50;31.82;;;;;;;6.18;57.86;100704.91;1758358;80;21153;-69
2022/02/06 11:58:33;;;;;;;45.40;23.18;;;;;;;6.03;58.25;100701.66;1758257;80;20876;-68
2022/02/06 12:01:12;;;;;;;39.75;18.77;;;;;;;5.94;58.69;100707.60;1758356;81;21003;-70
2022/02/06 12:03:58;;;;;;;34.15;16.85;;;;;;;5.84;58.80;100708.83;1758631;81;21581;-70
2022/02/06 12:06:39;;;;;;;41.08;19.87;;;;;;;5.76;58.98;100713.50;1758316;80;20896;-70
2022/02/06 12:09:11;;;;;;;33.55;18.82;;;;;;;5.70;59.49;100713.73;1727278;81;21747;-70
2022/02/06 12:11:38;;;;;;;43.38;21.02;;;;;;;5.64;59.57;100709.59;1757895;80;20947;-69
2022/02/06 12:14:22;;;;;;;29.57;14.60;;;;;;;5.63;59.98;100710.97;1758169;80;21102;-75
2022/02/06 12:17:55;;;;;;;27.17;13.65;;;;;;;5.64;60.15;100719.16;1758210;81;21441;-69
2022/02/06 12:20:13;;;;;;;20.95;13.32;;;;;;;5.63;60.05;100718.32;1750559;81;20944;-68
2022/02/06 12:22:51;;;;;;;17.65;9.63;;;;;;;5.62;60.14;100716.61;1758496;80;21056;-68
2022/02/06 12:25:26;;;;;;;15.50;9.73;;;;;;;5.59;60.10;100717.58;1758381;80;20876;-69
2022/02/06 12:28:21;;;;;;;16.62;8.68;;;;;;;5.56;60.21;100712.50;1758582;81;20939;-70
2022/02/06 12:30:46;;;;;;;17.60;9.35;;;;;;;5.54;60.37;100716.07;1694789;83;20987;-70
2022/02/06 12:33:39;;;;;;;13.08;7.90;;;;;;;5.56;60.34;100716.41;1695365;83;20986;-71
2022/02/06 12:38:44;;;;;;;17.82;10.15;;;;;;;5.57;60.32;100719.84;1692764;83;21394;-71
2022/02/06 12:41:25;;;;;;;16.48;9.95;;;;;;;5.55;60.48;100720.35;1692869;83;21032;-70
2022/02/06 12:43:57;;;;;;;18.25;10.38;;;;;;;5.52;60.46;100720.48;1692725;83;20924;-69
2022/02/06 12:46:25;;;;;;;15.88;8.78;;;;;;;5.51;60.70;100725.27;1692683;83;20927;-70
2022/02/06 12:48:52;;;;;;;16.80;10.03;;;;;;;5.48;60.70;100729.30;1692797;83;21111;-69
2022/02/06 12:51:27;;;;;;;13.10;8.63;;;;;;;5.46;60.73;100732.41;1692385;83;20963;-70
2022/02/06 12:54:10;;;;;;;14.70;9.58;;;;;;;5.44;60.96;100733.75;1692638;83;21548;-70
2022/02/06 12:56:42;;;;;;;13.08;8.23;;;;;;;5.40;60.97;100731.73;1692299;84;20999;-71
2022/02/06 12:59:09;;;;;;;16.73;9.75;;;;;;;5.34;60.90;100735.85;1692444;83;20995;-69
2022/02/06 13:01:43;;;;;;;15.10;9.03;;;;;;;5.28;61.16;100734.77;1692271;83;21910;-70
2022/02/06 13:04:15;;;;;;;18.35;10.63;;;;;;;5.20;61.28;100736.78;1692766;83;20967;-71
2022/02/06 13:06:47;;;;;;;13.72;9.63;;;;;;;5.11;61.59;100735.39;1728284;80;20901;-70
2022/02/06 13:09:24;;;;;;;10.35;8.75;;;;;;;5.03;61.72;100736.10;1754978;80;20900;-70
2022/02/06 13:12:03;;;;;;;16.93;9.73;;;;;;;4.93;62.09;100730.36;1754476;80;20932;-70
2022/02/06 13:20:08;;;;;;;14.38;9.28;;;;;;;4.67;62.98;100735.17;1754141;80;20920;-71
2022/02/06 13:22:52;;;;;;;17.25;10.35;;;;;;;4.57;63.12;100729.88;1753143;80;20888;-70
2022/02/06 13:25:31;;;;;;;15.53;9.95;;;;;;;4.49;63.47;100731.87;1753542;80;20889;-71
2022/02/06 13:31:37;;;;;;;15.78;9.95;;;;;;;4.38;63.88;100736.14;1754070;81;21265;-71
2022/02/06 13:33:51;;;;;;;14.20;10.13;;;;;;;4.33;64.09;100730.22;1741070;81;20984;-77
2022/02/06 13:36:24;;;;;;;16.55;11.97;;;;;;;4.30;64.35;100731.18;1745729;81;20948;-70
2022/02/06 13:38:48;;;;;;;15.08;9.88;;;;;;;4.30;64.49;100736.37;1743643;81;20893;-72
2022/02/06 13:41:18;;;;;;;13.08;8.88;;;;;;;4.32;64.48;100738.92;1743938;81;21557;-70
2022/02/06 13:43:45;;;;;;;12.10;8.43;;;;;;;4.31;64.60;100740.69;1744358;81;20917;-72
2022/02/06 13:46:22;;;;;;;18.90;11.10;;;;;;;4.29;64.46;100741.60;1744239;81;21351;-71
2022/02/06 13:48:49;;;;;;;14.03;10.30;;;;;;;4.25;64.50;100743.47;1744371;81;20885;-71
2022/02/06 13:51:18;;;;;;;15.88;10.18;;;;;;;4.22;64.54;100738.81;1744274;81;20897;-69
2022/02/06 13:54:00;;;;;;;13.48;9.53;;;;;;;4.16;64.58;100743.77;1733949;82;21184;-71